Hanford, CA (93230)

04:02 PDT le 23 juillet 2016 (GMT -0700)
North Hanford | | Change Station

Alt. 249 ft 36.36 °N, 119.66 °W | Updated 1 second ago

Clear
Ciel dégagé
64.0 ° F
Paraît 64.0 ° F
N
0.0
Vent Variable Vent de NNO
Gusts 3.2 mph

Aujourd'hui
Haut(e) -- | Bas -- ° F
--% Risque de précip.
Hier
Haut(e) -- | Bas -- ° F
Precip. -- pouce
Pression 29.92 pouce
Visibilité 10.0 Miles terrestres
Nuages Ciel dégagé
Point de rosée 54 ° F
Humidité 70%
Précipitations 0.00 pouce
Profondeur de la couche neigeuse Non disponible.
5:58 AM 8:11 PM
Lune gibbeuse décroissante, 86% visible
METAR KHJO 231053Z AUTO 35003KT 10SM CLR 17/12 A2992 RMK AO2 SLP132 T01720117
Pression 29.92 pouce
Visibilité 10.0 Miles terrestres
Nuages Ciel dégagé
Point de rosée 54 ° F
Humidité 70%
Précipitations 0.00 pouce
Profondeur de la couche neigeuse Non disponible.
5:58 AM 8:11 PM
Lune gibbeuse décroissante, 86% visible
METAR KHJO 231053Z AUTO 35003KT 10SM CLR 17/12 A2992 RMK AO2 SLP132 T01720117

10-Day Weather Forecast

Almanac

Astronomie

Jul. 23, 2016 Lever Coucher
Temps réel
Crépuscule civil
Crépuscule nautique
Crépuscule astronomique
Lune
Durée de lumière visible
Longueur du jour
Tomorrow will be .
, % of the Moon is Illuminated

Extrêmes aujourd'hui

State Highs State Lows

Community

WunderPhotos

Upload Photos

1,926,798 Photos téléchargées !

WunderBlog® & News

Nearby

Qualité de l'air

  Qualité de l'air Indice de la qualité de l'air Polluant
Not available.

Épaisseur de neige

Station Depth Altitude

Activité sismique

Ville Distance Mag. Time & Date
Minimum magnitude displayed is 2.5.

Températures des eaux côtières

Lieu Température

Stations

Stations météo à proximité

Emplacement de la station Température Refroidissement éolien Point de rosée Humidité Vent Precip. Alt. Mise à jour Type
                   

Watches & Warnings

There are currently no watches in effect.